<?xml version="1.0" encoding="UTF-8" standalone="no" ?>
<gpx xmlns="http://www.topografix.com/GPX/1/1" xmlns:xsi="http://www.w3.org/2001/XMLSchema-instance" xsi:schemaLocation="http://www.topografix.com/GPX/1/1 http://www.topografix.com/GPX/1/1/gpx.xsd" version="1.1" creator="VisuGPX - https://www.visugpx.com">
  <metadata>
    <name>Randonnée de Barsac circuit  du matin le 18 11 2018</name>
    <desc><![CDATA[Randonnée de Barsac circuit du matin le 18 11 2018]]></desc>
  </metadata>
  <trk>
    <name><![CDATA[Tracé 18 nov. 2018 09:48:36]]></name>
    <trkseg>
      <trkpt lat="44.60278" lon="-0.30417">
        <ele>9</ele>
        <time>2018-11-18T08:48:36Z</time>
      </trkpt>
      <trkpt lat="44.60242" lon="-0.30349">
        <ele>-48.290304</ele>
        <time>2018-11-18T08:48:45Z</time>
      </trkpt>
      <trkpt lat="44.60285" lon="-0.30367">
        <ele>-55.088602</ele>
        <time>2018-11-18T08:49:43Z</time>
      </trkpt>
      <trkpt lat="44.60328" lon="-0.30378">
        <ele>-54.7868676</ele>
        <time>2018-11-18T08:50:27Z</time>
      </trkpt>
      <trkpt lat="44.6037" lon="-0.304">
        <ele>-55.0852076</ele>
        <time>2018-11-18T08:51:03Z</time>
      </trkpt>
      <trkpt lat="44.60398" lon="-0.30448">
        <ele>-57.5840808</ele>
        <time>2018-11-18T08:51:46Z</time>
      </trkpt>
      <trkpt lat="44.6044" lon="-0.30464">
        <ele>-55.982388</ele>
        <time>2018-11-18T08:52:29Z</time>
      </trkpt>
      <trkpt lat="44.60481" lon="-0.30481">
        <ele>-55.7807436</ele>
        <time>2018-11-18T08:52:53Z</time>
      </trkpt>
      <trkpt lat="44.60525" lon="-0.3048">
        <ele>-49.8790064</ele>
        <time>2018-11-18T08:53:34Z</time>
      </trkpt>
      <trkpt lat="44.60568" lon="-0.30494">
        <ele>-50.97727</ele>
        <time>2018-11-18T08:54:23Z</time>
      </trkpt>
      <trkpt lat="44.60608" lon="-0.30507">
        <ele>-52.1756712</ele>
        <time>2018-11-18T08:54:44Z</time>
      </trkpt>
      <trkpt lat="44.6065" lon="-0.30519">
        <ele>-38.8739856</ele>
        <time>2018-11-18T08:55:17Z</time>
      </trkpt>
      <trkpt lat="44.60695" lon="-0.30519">
        <ele>-43.972204</ele>
        <time>2018-11-18T08:55:52Z</time>
      </trkpt>
      <trkpt lat="44.60738" lon="-0.30526">
        <ele>-42.4704856</ele>
        <time>2018-11-18T08:56:29Z</time>
      </trkpt>
      <trkpt lat="44.60781" lon="-0.30522">
        <ele>-43.9687624</ele>
        <time>2018-11-18T08:57:04Z</time>
      </trkpt>
      <trkpt lat="44.60823" lon="-0.30526">
        <ele>-43.0670828</ele>
        <time>2018-11-18T08:57:31Z</time>
      </trkpt>
      <trkpt lat="44.60866" lon="-0.30526">
        <ele>-42.4653696</ele>
        <time>2018-11-18T08:58:03Z</time>
      </trkpt>
      <trkpt lat="44.60906" lon="-0.30501">
        <ele>-42.56378</ele>
        <time>2018-11-18T08:58:40Z</time>
      </trkpt>
      <trkpt lat="44.6095" lon="-0.30506">
        <ele>-50.562002</ele>
        <time>2018-11-18T08:59:13Z</time>
      </trkpt>
      <trkpt lat="44.60991" lon="-0.30487">
        <ele>-49.7603496</ele>
        <time>2018-11-18T08:59:47Z</time>
      </trkpt>
      <trkpt lat="44.61023" lon="-0.30443">
        <ele>-60.4590704</ele>
        <time>2018-11-18T09:00:49Z</time>
      </trkpt>
      <trkpt lat="44.61065" lon="-0.30452">
        <ele>-53.4573976</ele>
        <time>2018-11-18T09:01:05Z</time>
      </trkpt>
      <trkpt lat="44.61084" lon="-0.30508">
        <ele>-54.5566436</ele>
        <time>2018-11-18T09:02:29Z</time>
      </trkpt>
      <trkpt lat="44.61064" lon="-0.3056">
        <ele>-49.4574468</ele>
        <time>2018-11-18T09:02:59Z</time>
      </trkpt>
      <trkpt lat="44.61052" lon="-0.3062">
        <ele>-49.5579384</ele>
        <time>2018-11-18T09:03:40Z</time>
      </trkpt>
      <trkpt lat="44.61037" lon="-0.30679">
        <ele>-50.2585252</ele>
        <time>2018-11-18T09:04:20Z</time>
      </trkpt>
      <trkpt lat="44.61023" lon="-0.30737">
        <ele>-49.9590916</ele>
        <time>2018-11-18T09:04:53Z</time>
      </trkpt>
      <trkpt lat="44.61004" lon="-0.30794">
        <ele>-42.2598272</ele>
        <time>2018-11-18T09:05:33Z</time>
      </trkpt>
      <trkpt lat="44.60992" lon="-0.30854">
        <ele>-47.4603256</ele>
        <time>2018-11-18T09:06:10Z</time>
      </trkpt>
      <trkpt lat="44.6095" lon="-0.30876">
        <ele>-47.4619896</ele>
        <time>2018-11-18T09:06:45Z</time>
      </trkpt>
      <trkpt lat="44.60907" lon="-0.30883">
        <ele>-51.0637328</ele>
        <time>2018-11-18T09:07:20Z</time>
      </trkpt>
      <trkpt lat="44.60876" lon="-0.30927">
        <ele>-50.4649792</ele>
        <time>2018-11-18T09:07:51Z</time>
      </trkpt>
      <trkpt lat="44.60862" lon="-0.30986">
        <ele>-45.0655304</ele>
        <time>2018-11-18T09:08:29Z</time>
      </trkpt>
      <trkpt lat="44.60834" lon="-0.31035">
        <ele>-62.2666396</ele>
        <time>2018-11-18T09:09:11Z</time>
      </trkpt>
      <trkpt lat="44.6081" lon="-0.31085">
        <ele>-53.2675932</ele>
        <time>2018-11-18T09:09:44Z</time>
      </trkpt>
      <trkpt lat="44.60795" lon="-0.31142">
        <ele>-54.2682048</ele>
        <time>2018-11-18T09:10:11Z</time>
      </trkpt>
      <trkpt lat="44.60795" lon="-0.31204">
        <ele>-64.2682008</ele>
        <time>2018-11-18T09:10:59Z</time>
      </trkpt>
      <trkpt lat="44.60826" lon="-0.31193">
        <ele>-22.36696</ele>
        <time>2018-11-18T09:12:52Z</time>
      </trkpt>
      <trkpt lat="44.60882" lon="-0.31095">
        <ele>-19.66472</ele>
        <time>2018-11-18T09:13:02Z</time>
      </trkpt>
      <trkpt lat="44.60922" lon="-0.31032">
        <ele>-18.1631268</ele>
        <time>2018-11-18T09:13:10Z</time>
      </trkpt>
      <trkpt lat="44.60931" lon="-0.31017">
        <ele>-17.3627668</ele>
        <time>2018-11-18T09:13:12Z</time>
      </trkpt>
      <trkpt lat="44.60895" lon="-0.312">
        <ele>-15.164198</ele>
        <time>2018-11-18T09:13:36Z</time>
      </trkpt>
      <trkpt lat="44.60856" lon="-0.31317">
        <ele>-20.0657508</ele>
        <time>2018-11-18T09:13:46Z</time>
      </trkpt>
      <trkpt lat="44.60899" lon="-0.31325">
        <ele>-36.96406</ele>
        <time>2018-11-18T09:14:24Z</time>
      </trkpt>
      <trkpt lat="44.60938" lon="-0.31355">
        <ele>-69.5624792</ele>
        <time>2018-11-18T09:15:05Z</time>
      </trkpt>
      <trkpt lat="44.60916" lon="-0.31405">
        <ele>-73.2633804</ele>
        <time>2018-11-18T09:17:14Z</time>
      </trkpt>
      <trkpt lat="44.60908" lon="-0.31465">
        <ele>-69.0637012</ele>
        <time>2018-11-18T09:17:50Z</time>
      </trkpt>
      <trkpt lat="44.60873" lon="-0.31498">
        <ele>-65.565092</ele>
        <time>2018-11-18T09:18:24Z</time>
      </trkpt>
      <trkpt lat="44.6086" lon="-0.31558">
        <ele>-65.465614</ele>
        <time>2018-11-18T09:19:02Z</time>
      </trkpt>
      <trkpt lat="44.60843" lon="-0.31616">
        <ele>-63.0663004</ele>
        <time>2018-11-18T09:19:42Z</time>
      </trkpt>
      <trkpt lat="44.60811" lon="-0.31658">
        <ele>-55.4675772</ele>
        <time>2018-11-18T09:20:21Z</time>
      </trkpt>
      <trkpt lat="44.60805" lon="-0.31719">
        <ele>-49.5678132</ele>
        <time>2018-11-18T09:21:48Z</time>
      </trkpt>
      <trkpt lat="44.6079" lon="-0.31778">
        <ele>-53.2684016</ele>
        <time>2018-11-18T09:22:32Z</time>
      </trkpt>
      <trkpt lat="44.60759" lon="-0.31821">
        <ele>-80.8696424</ele>
        <time>2018-11-18T09:23:38Z</time>
      </trkpt>
      <trkpt lat="44.6073" lon="-0.31867">
        <ele>-69.670802</ele>
        <time>2018-11-18T09:24:00Z</time>
      </trkpt>
      <trkpt lat="44.60695" lon="-0.31902">
        <ele>-55.0722072</ele>
        <time>2018-11-18T09:24:29Z</time>
      </trkpt>
      <trkpt lat="44.60671" lon="-0.31955">
        <ele>-53.373172</ele>
        <time>2018-11-18T09:25:14Z</time>
      </trkpt>
      <trkpt lat="44.60644" lon="-0.32002">
        <ele>10</ele>
        <time>2018-11-18T09:26:07Z</time>
      </trkpt>
      <trkpt lat="44.60629" lon="-0.32055">
        <ele>-76.2748612</ele>
        <time>2018-11-18T09:26:58Z</time>
      </trkpt>
      <trkpt lat="44.60605" lon="-0.32106">
        <ele>-39.6757916</ele>
        <time>2018-11-18T09:27:20Z</time>
      </trkpt>
      <trkpt lat="44.60579" lon="-0.32157">
        <ele>-40.376842</ele>
        <time>2018-11-18T09:27:58Z</time>
      </trkpt>
      <trkpt lat="44.60596" lon="-0.32214">
        <ele>-42.0761464</ele>
        <time>2018-11-18T09:28:54Z</time>
      </trkpt>
      <trkpt lat="44.60636" lon="-0.3224">
        <ele>-43.9745652</ele>
        <time>2018-11-18T09:29:32Z</time>
      </trkpt>
      <trkpt lat="44.60673" lon="-0.32273">
        <ele>-50.8730824</ele>
        <time>2018-11-18T09:30:11Z</time>
      </trkpt>
      <trkpt lat="44.60673" lon="-0.32334">
        <ele>-46.3731</ele>
        <time>2018-11-18T09:31:00Z</time>
      </trkpt>
      <trkpt lat="44.60657" lon="-0.32393">
        <ele>-52.3737228</ele>
        <time>2018-11-18T09:31:38Z</time>
      </trkpt>
      <trkpt lat="44.60649" lon="-0.32455">
        <ele>-51.4740252</ele>
        <time>2018-11-18T09:32:21Z</time>
      </trkpt>
      <trkpt lat="44.60637" lon="-0.32511">
        <ele>-43.4745124</ele>
        <time>2018-11-18T09:32:50Z</time>
      </trkpt>
      <trkpt lat="44.60617" lon="-0.32565">
        <ele>-44.175328</ele>
        <time>2018-11-18T09:33:32Z</time>
      </trkpt>
      <trkpt lat="44.60592" lon="-0.32613">
        <ele>-52.3763096</ele>
        <time>2018-11-18T09:34:07Z</time>
      </trkpt>
      <trkpt lat="44.60568" lon="-0.32663">
        <ele>-57.077268</ele>
        <time>2018-11-18T09:34:41Z</time>
      </trkpt>
      <trkpt lat="44.60538" lon="-0.32704">
        <ele>-64.6784852</ele>
        <time>2018-11-18T09:35:11Z</time>
      </trkpt>
      <trkpt lat="44.60525" lon="-0.32763">
        <ele>-42.1790132</ele>
        <time>2018-11-18T09:35:48Z</time>
      </trkpt>
      <trkpt lat="44.60504" lon="-0.32819">
        <ele>-29.67983</ele>
        <time>2018-11-18T09:36:26Z</time>
      </trkpt>
      <trkpt lat="44.60467" lon="-0.3285">
        <ele>-61.9813376</ele>
        <time>2018-11-18T09:37:03Z</time>
      </trkpt>
      <trkpt lat="44.60447" lon="-0.32906">
        <ele>-84.4821128</ele>
        <time>2018-11-18T09:37:36Z</time>
      </trkpt>
      <trkpt lat="44.60438" lon="-0.32965">
        <ele>-95.6824628</ele>
        <time>2018-11-18T09:38:34Z</time>
      </trkpt>
      <trkpt lat="44.60418" lon="-0.33017">
        <ele>-81.183298</ele>
        <time>2018-11-18T09:38:57Z</time>
      </trkpt>
      <trkpt lat="44.60393" lon="-0.33069">
        <ele>-51.8842776</ele>
        <time>2018-11-18T09:39:24Z</time>
      </trkpt>
      <trkpt lat="44.60364" lon="-0.33116">
        <ele>-42.9854284</ele>
        <time>2018-11-18T09:40:03Z</time>
      </trkpt>
      <trkpt lat="44.6033" lon="-0.33157">
        <ele>-81.9867984</ele>
        <time>2018-11-18T09:40:59Z</time>
      </trkpt>
      <trkpt lat="44.60299" lon="-0.33198">
        <ele>-91.0880596</ele>
        <time>2018-11-18T09:41:40Z</time>
      </trkpt>
      <trkpt lat="44.60269" lon="-0.33243">
        <ele>-61.389236</ele>
        <time>2018-11-18T09:42:00Z</time>
      </trkpt>
      <trkpt lat="44.60234" lon="-0.33277">
        <ele>-47.5906272</ele>
        <time>2018-11-18T09:42:30Z</time>
      </trkpt>
      <trkpt lat="44.60204" lon="-0.33323">
        <ele>-45.7918328</ele>
        <time>2018-11-18T09:43:06Z</time>
      </trkpt>
      <trkpt lat="44.60167" lon="-0.33354">
        <ele>-48.59331</ele>
        <time>2018-11-18T09:43:42Z</time>
      </trkpt>
      <trkpt lat="44.60134" lon="-0.33392">
        <ele>-97.2946372</ele>
        <time>2018-11-18T09:44:57Z</time>
      </trkpt>
      <trkpt lat="44.60098" lon="-0.33423">
        <ele>-111.496082</ele>
        <time>2018-11-18T09:45:30Z</time>
      </trkpt>
      <trkpt lat="44.60071" lon="-0.33473">
        <ele>-104.597164</ele>
        <time>2018-11-18T09:46:03Z</time>
      </trkpt>
      <trkpt lat="44.60041" lon="-0.33518">
        <ele>-42.1983532</ele>
        <time>2018-11-18T09:46:47Z</time>
      </trkpt>
      <trkpt lat="44.59997" lon="-0.33509">
        <ele>-45.7001216</ele>
        <time>2018-11-18T09:48:02Z</time>
      </trkpt>
      <trkpt lat="44.59953" lon="-0.335">
        <ele>-41.5018776</ele>
        <time>2018-11-18T09:48:47Z</time>
      </trkpt>
      <trkpt lat="44.59911" lon="-0.33482">
        <ele>-40.903568</ele>
        <time>2018-11-18T09:49:06Z</time>
      </trkpt>
      <trkpt lat="44.59876" lon="-0.33449">
        <ele>-37.4049696</ele>
        <time>2018-11-18T09:49:48Z</time>
      </trkpt>
      <trkpt lat="44.59841" lon="-0.33415">
        <ele>-39.8063788</ele>
        <time>2018-11-18T09:50:32Z</time>
      </trkpt>
      <trkpt lat="44.59811" lon="-0.33369">
        <ele>-39.2075448</ele>
        <time>2018-11-18T09:51:10Z</time>
      </trkpt>
      <trkpt lat="44.59831" lon="-0.33426">
        <ele>-46.2067756</ele>
        <time>2018-11-18T09:56:28Z</time>
      </trkpt>
      <trkpt lat="44.59872" lon="-0.33445">
        <ele>-56.6051116</ele>
        <time>2018-11-18T09:56:56Z</time>
      </trkpt>
      <trkpt lat="44.59913" lon="-0.33472">
        <ele>-59.4034952</ele>
        <time>2018-11-18T09:57:32Z</time>
      </trkpt>
      <trkpt lat="44.59946" lon="-0.335">
        <ele>-47.502152</ele>
        <time>2018-11-18T09:58:00Z</time>
      </trkpt>
      <trkpt lat="44.59924" lon="-0.33554">
        <ele>-58.6030432</ele>
        <time>2018-11-18T09:59:04Z</time>
      </trkpt>
      <trkpt lat="44.59888" lon="-0.33591">
        <ele>-63.8044808</ele>
        <time>2018-11-18T09:59:35Z</time>
      </trkpt>
      <trkpt lat="44.59848" lon="-0.33619">
        <ele>-63.6060872</ele>
        <time>2018-11-18T10:00:18Z</time>
      </trkpt>
      <trkpt lat="44.59805" lon="-0.33633">
        <ele>-69.9078088</ele>
        <time>2018-11-18T10:00:56Z</time>
      </trkpt>
      <trkpt lat="44.59769" lon="-0.33662">
        <ele>-79.409236</ele>
        <time>2018-11-18T10:01:27Z</time>
      </trkpt>
      <trkpt lat="44.59726" lon="-0.33655">
        <ele>-86.4109716</ele>
        <time>2018-11-18T10:01:54Z</time>
      </trkpt>
      <trkpt lat="44.59688" lon="-0.33685">
        <ele>-96.7124956</ele>
        <time>2018-11-18T10:02:38Z</time>
      </trkpt>
      <trkpt lat="44.59655" lon="-0.33727">
        <ele>-89.7138088</ele>
        <time>2018-11-18T10:03:27Z</time>
      </trkpt>
      <trkpt lat="44.59616" lon="-0.33755">
        <ele>-86.2153604</ele>
        <time>2018-11-18T10:03:59Z</time>
      </trkpt>
      <trkpt lat="44.59577" lon="-0.33773">
        <ele>-78.0169392</ele>
        <time>2018-11-18T10:04:34Z</time>
      </trkpt>
      <trkpt lat="44.59533" lon="-0.33778">
        <ele>-66.2186796</ele>
        <time>2018-11-18T10:06:47Z</time>
      </trkpt>
      <trkpt lat="44.5949" lon="-0.33791">
        <ele>-64.8203916</ele>
        <time>2018-11-18T10:07:12Z</time>
      </trkpt>
      <trkpt lat="44.59453" lon="-0.33824">
        <ele>-70.5219016</ele>
        <time>2018-11-18T10:07:44Z</time>
      </trkpt>
      <trkpt lat="44.59422" lon="-0.33868">
        <ele>-74.8231156</ele>
        <time>2018-11-18T10:08:26Z</time>
      </trkpt>
      <trkpt lat="44.59379" lon="-0.33858">
        <ele>-74.9248284</ele>
        <time>2018-11-18T10:09:33Z</time>
      </trkpt>
      <trkpt lat="44.59349" lon="-0.33813">
        <ele>-76.526056</ele>
        <time>2018-11-18T10:10:11Z</time>
      </trkpt>
      <trkpt lat="44.59315" lon="-0.33854">
        <ele>-62.8274048</ele>
        <time>2018-11-18T10:10:52Z</time>
      </trkpt>
      <trkpt lat="44.59297" lon="-0.3391">
        <ele>-68.2281144</ele>
        <time>2018-11-18T10:11:39Z</time>
      </trkpt>
      <trkpt lat="44.59272" lon="-0.33962">
        <ele>-62.6291212</ele>
        <time>2018-11-18T10:13:11Z</time>
      </trkpt>
      <trkpt lat="44.59251" lon="-0.34014">
        <ele>-60.8299708</ele>
        <time>2018-11-18T10:13:52Z</time>
      </trkpt>
      <trkpt lat="44.59213" lon="-0.34038">
        <ele>-58.6314792</ele>
        <time>2018-11-18T10:14:12Z</time>
      </trkpt>
      <trkpt lat="44.59179" lon="-0.34078">
        <ele>-59.632856</ele>
        <time>2018-11-18T10:14:50Z</time>
      </trkpt>
      <trkpt lat="44.59164" lon="-0.34137">
        <ele>-63.2334512</ele>
        <time>2018-11-18T10:15:22Z</time>
      </trkpt>
      <trkpt lat="44.59147" lon="-0.34194">
        <ele>-60.8341188</ele>
        <time>2018-11-18T10:16:02Z</time>
      </trkpt>
      <trkpt lat="44.59112" lon="-0.34231">
        <ele>-59.335504</ele>
        <time>2018-11-18T10:16:24Z</time>
      </trkpt>
      <trkpt lat="44.59083" lon="-0.34276">
        <ele>-57.6366972</ele>
        <time>2018-11-18T10:17:06Z</time>
      </trkpt>
      <trkpt lat="44.59057" lon="-0.34326">
        <ele>-59.7377076</ele>
        <time>2018-11-18T10:17:38Z</time>
      </trkpt>
      <trkpt lat="44.59048" lon="-0.34383">
        <ele>-54.338066</ele>
        <time>2018-11-18T10:21:06Z</time>
      </trkpt>
      <trkpt lat="44.59028" lon="-0.34327">
        <ele>-49.4388712</ele>
        <time>2018-11-18T10:23:14Z</time>
      </trkpt>
      <trkpt lat="44.5899" lon="-0.34298">
        <ele>-37.9404104</ele>
        <time>2018-11-18T10:24:00Z</time>
      </trkpt>
      <trkpt lat="44.58965" lon="-0.34245">
        <ele>-45.7413848</ele>
        <time>2018-11-18T10:24:38Z</time>
      </trkpt>
      <trkpt lat="44.5897" lon="-0.34188">
        <ele>-75.241208</ele>
        <time>2018-11-18T10:25:36Z</time>
      </trkpt>
      <trkpt lat="44.58981" lon="-0.34127">
        <ele>-58.2407588</ele>
        <time>2018-11-18T10:26:24Z</time>
      </trkpt>
      <trkpt lat="44.58947" lon="-0.34089">
        <ele>-28.9421364</ele>
        <time>2018-11-18T10:27:00Z</time>
      </trkpt>
      <trkpt lat="44.58918" lon="-0.34041">
        <ele>-57.0432728</ele>
        <time>2018-11-18T10:27:45Z</time>
      </trkpt>
      <trkpt lat="44.58884" lon="-0.34001">
        <ele>-40.444636</ele>
        <time>2018-11-18T10:28:24Z</time>
      </trkpt>
      <trkpt lat="44.58858" lon="-0.33952">
        <ele>-62.9456948</ele>
        <time>2018-11-18T10:29:08Z</time>
      </trkpt>
      <trkpt lat="44.58827" lon="-0.33907">
        <ele>-48.746914</ele>
        <time>2018-11-18T10:29:39Z</time>
      </trkpt>
      <trkpt lat="44.58792" lon="-0.3387">
        <ele>-42.1483084</ele>
        <time>2018-11-18T10:30:14Z</time>
      </trkpt>
      <trkpt lat="44.58766" lon="-0.33822">
        <ele>-45.7493692</ele>
        <time>2018-11-18T10:30:49Z</time>
      </trkpt>
      <trkpt lat="44.58743" lon="-0.33769">
        <ele>-57.7502856</ele>
        <time>2018-11-18T10:31:30Z</time>
      </trkpt>
      <trkpt lat="44.5875" lon="-0.33708">
        <ele>-48.2500092</ele>
        <time>2018-11-18T10:32:36Z</time>
      </trkpt>
      <trkpt lat="44.58794" lon="-0.33712">
        <ele>-67.948256</ele>
        <time>2018-11-18T10:33:24Z</time>
      </trkpt>
      <trkpt lat="44.58807" lon="-0.33652">
        <ele>-38.8477156</ele>
        <time>2018-11-18T10:34:39Z</time>
      </trkpt>
      <trkpt lat="44.58843" lon="-0.33625">
        <ele>-37.7462912</ele>
        <time>2018-11-18T10:35:21Z</time>
      </trkpt>
      <trkpt lat="44.58862" lon="-0.33568">
        <ele>-39.9455404</ele>
        <time>2018-11-18T10:35:59Z</time>
      </trkpt>
      <trkpt lat="44.58905" lon="-0.33557">
        <ele>-73.5437888</ele>
        <time>2018-11-18T10:36:59Z</time>
      </trkpt>
      <trkpt lat="44.58945" lon="-0.33527">
        <ele>-102.5422188</ele>
        <time>2018-11-18T10:37:36Z</time>
      </trkpt>
      <trkpt lat="44.58959" lon="-0.33468">
        <ele>-77.6416424</ele>
        <time>2018-11-18T10:38:03Z</time>
      </trkpt>
      <trkpt lat="44.59002" lon="-0.33459">
        <ele>-58.039928</ele>
        <time>2018-11-18T10:38:38Z</time>
      </trkpt>
      <trkpt lat="44.5903" lon="-0.33415">
        <ele>-50.038784</ele>
        <time>2018-11-18T10:39:11Z</time>
      </trkpt>
      <trkpt lat="44.59071" lon="-0.33392">
        <ele>-60.4371628</ele>
        <time>2018-11-18T10:39:48Z</time>
      </trkpt>
      <trkpt lat="44.5911" lon="-0.33361">
        <ele>-68.9355968</ele>
        <time>2018-11-18T10:40:34Z</time>
      </trkpt>
      <trkpt lat="44.5912" lon="-0.33302">
        <ele>-50.6352136</ele>
        <time>2018-11-18T10:41:03Z</time>
      </trkpt>
      <trkpt lat="44.59138" lon="-0.33248">
        <ele>-54.4344836</ele>
        <time>2018-11-18T10:41:48Z</time>
      </trkpt>
      <trkpt lat="44.59139" lon="-0.33186">
        <ele>-49.9344588</ele>
        <time>2018-11-18T10:42:10Z</time>
      </trkpt>
      <trkpt lat="44.59158" lon="-0.3313">
        <ele>-43.0336884</ele>
        <time>2018-11-18T10:42:50Z</time>
      </trkpt>
      <trkpt lat="44.59178" lon="-0.33076">
        <ele>-48.332888</ele>
        <time>2018-11-18T10:43:26Z</time>
      </trkpt>
      <trkpt lat="44.592" lon="-0.33023">
        <ele>-49.7320152</ele>
        <time>2018-11-18T10:44:05Z</time>
      </trkpt>
      <trkpt lat="44.59229" lon="-0.32978">
        <ele>-47.4308516</ele>
        <time>2018-11-18T10:44:38Z</time>
      </trkpt>
      <trkpt lat="44.59271" lon="-0.32962">
        <ele>-68.0291616</ele>
        <time>2018-11-18T10:45:12Z</time>
      </trkpt>
      <trkpt lat="44.59284" lon="-0.32901">
        <ele>-50.2286444</ele>
        <time>2018-11-18T10:45:41Z</time>
      </trkpt>
      <trkpt lat="44.59302" lon="-0.32844">
        <ele>-50.1279348</ele>
        <time>2018-11-18T10:46:14Z</time>
      </trkpt>
      <trkpt lat="44.59336" lon="-0.3281">
        <ele>-49.3265776</ele>
        <time>2018-11-18T10:47:26Z</time>
      </trkpt>
      <trkpt lat="44.59375" lon="-0.32787">
        <ele>-71.4249992</ele>
        <time>2018-11-18T10:48:08Z</time>
      </trkpt>
      <trkpt lat="44.59409" lon="-0.32747">
        <ele>-63.7236412</ele>
        <time>2018-11-18T10:48:40Z</time>
      </trkpt>
      <trkpt lat="44.59441" lon="-0.32708">
        <ele>-59.1223444</ele>
        <time>2018-11-18T10:49:12Z</time>
      </trkpt>
      <trkpt lat="44.5948" lon="-0.32682">
        <ele>-54.4208132</ele>
        <time>2018-11-18T10:49:53Z</time>
      </trkpt>
      <trkpt lat="44.59516" lon="-0.32647">
        <ele>-64.8193816</ele>
        <time>2018-11-18T10:50:34Z</time>
      </trkpt>
      <trkpt lat="44.59558" lon="-0.32637">
        <ele>-104.8176628</ele>
        <time>2018-11-18T10:51:01Z</time>
      </trkpt>
      <trkpt lat="44.59564" lon="-0.32576">
        <ele>-69.0174292</ele>
        <time>2018-11-18T10:51:21Z</time>
      </trkpt>
      <trkpt lat="44.59608" lon="-0.32564">
        <ele>-70.2156668</ele>
        <time>2018-11-18T10:52:03Z</time>
      </trkpt>
      <trkpt lat="44.59639" lon="-0.32519">
        <ele>-68.014434</ele>
        <time>2018-11-18T10:52:34Z</time>
      </trkpt>
      <trkpt lat="44.59671" lon="-0.32476">
        <ele>-60.113156</ele>
        <time>2018-11-18T10:53:08Z</time>
      </trkpt>
      <trkpt lat="44.59696" lon="-0.32426">
        <ele>-48.9121444</ele>
        <time>2018-11-18T10:53:38Z</time>
      </trkpt>
      <trkpt lat="44.59734" lon="-0.32392">
        <ele>-58.7106616</ele>
        <time>2018-11-18T10:54:20Z</time>
      </trkpt>
      <trkpt lat="44.59763" lon="-0.32347">
        <ele>-42.8094864</ele>
        <time>2018-11-18T10:54:51Z</time>
      </trkpt>
      <trkpt lat="44.59795" lon="-0.32303">
        <ele>-44.9082044</ele>
        <time>2018-11-18T10:55:26Z</time>
      </trkpt>
      <trkpt lat="44.59833" lon="-0.32276">
        <ele>-50.3066688</ele>
        <time>2018-11-18T10:55:59Z</time>
      </trkpt>
      <trkpt lat="44.59852" lon="-0.32219">
        <ele>-44.0059096</ele>
        <time>2018-11-18T10:58:11Z</time>
      </trkpt>
      <trkpt lat="44.59859" lon="-0.32159">
        <ele>-69.705658</ele>
        <time>2018-11-18T10:58:48Z</time>
      </trkpt>
      <trkpt lat="44.5985" lon="-0.32098">
        <ele>-43.3059988</ele>
        <time>2018-11-18T10:59:16Z</time>
      </trkpt>
      <trkpt lat="44.59833" lon="-0.3204">
        <ele>-63.4066844</ele>
        <time>2018-11-18T11:00:03Z</time>
      </trkpt>
      <trkpt lat="44.59811" lon="-0.31989">
        <ele>-59.507554</ele>
        <time>2018-11-18T11:00:30Z</time>
      </trkpt>
      <trkpt lat="44.59794" lon="-0.31935">
        <ele>-49.8082296</ele>
        <time>2018-11-18T11:01:08Z</time>
      </trkpt>
      <trkpt lat="44.59781" lon="-0.31878">
        <ele>-47.108742</ele>
        <time>2018-11-18T11:01:43Z</time>
      </trkpt>
      <trkpt lat="44.59762" lon="-0.31822">
        <ele>-61.80954</ele>
        <time>2018-11-18T11:02:17Z</time>
      </trkpt>
      <trkpt lat="44.59736" lon="-0.3177">
        <ele>-55.8105732</ele>
        <time>2018-11-18T11:02:55Z</time>
      </trkpt>
      <trkpt lat="44.59734" lon="-0.3171">
        <ele>-45.4106516</ele>
        <time>2018-11-18T11:03:44Z</time>
      </trkpt>
      <trkpt lat="44.59718" lon="-0.31652">
        <ele>-52.911296</ele>
        <time>2018-11-18T11:04:21Z</time>
      </trkpt>
      <trkpt lat="44.59731" lon="-0.31593">
        <ele>-66.7107604</ele>
        <time>2018-11-18T11:05:11Z</time>
      </trkpt>
      <trkpt lat="44.59744" lon="-0.31534">
        <ele>-65.2102344</ele>
        <time>2018-11-18T11:05:56Z</time>
      </trkpt>
      <trkpt lat="44.59783" lon="-0.31503">
        <ele>-59.5086964</ele>
        <time>2018-11-18T11:06:34Z</time>
      </trkpt>
      <trkpt lat="44.59824" lon="-0.31485">
        <ele>-68.0070396</ele>
        <time>2018-11-18T11:07:10Z</time>
      </trkpt>
      <trkpt lat="44.59855" lon="-0.31441">
        <ele>-61.005808</ele>
        <time>2018-11-18T11:07:40Z</time>
      </trkpt>
      <trkpt lat="44.59881" lon="-0.31394">
        <ele>-53.5047468</ele>
        <time>2018-11-18T11:08:16Z</time>
      </trkpt>
      <trkpt lat="44.5991" lon="-0.31347">
        <ele>-57.703596</ele>
        <time>2018-11-18T11:08:58Z</time>
      </trkpt>
      <trkpt lat="44.59939" lon="-0.31301">
        <ele>-47.30244</ele>
        <time>2018-11-18T11:09:32Z</time>
      </trkpt>
      <trkpt lat="44.59977" lon="-0.31271">
        <ele>-49.2009072</ele>
        <time>2018-11-18T11:10:05Z</time>
      </trkpt>
      <trkpt lat="44.6002" lon="-0.31255">
        <ele>-66.7992168</ele>
        <time>2018-11-18T11:10:42Z</time>
      </trkpt>
      <trkpt lat="44.60042" lon="-0.31201">
        <ele>-53.4983068</ele>
        <time>2018-11-18T11:11:36Z</time>
      </trkpt>
      <trkpt lat="44.60072" lon="-0.31154">
        <ele>-62.1971088</ele>
        <time>2018-11-18T11:12:17Z</time>
      </trkpt>
      <trkpt lat="44.60083" lon="-0.31096">
        <ele>-53.696664</ele>
        <time>2018-11-18T11:12:48Z</time>
      </trkpt>
      <trkpt lat="44.60115" lon="-0.31058">
        <ele>-79.5953928</ele>
        <time>2018-11-18T11:13:44Z</time>
      </trkpt>
      <trkpt lat="44.60125" lon="-0.31006">
        <ele>-95.8949892</ele>
        <time>2018-11-18T11:14:16Z</time>
      </trkpt>
      <trkpt lat="44.60119" lon="-0.30945">
        <ele>-70.4952468</ele>
        <time>2018-11-18T11:14:28Z</time>
      </trkpt>
      <trkpt lat="44.60115" lon="-0.30886">
        <ele>-45.8954204</ele>
        <time>2018-11-18T11:15:00Z</time>
      </trkpt>
      <trkpt lat="44.6013" lon="-0.30827">
        <ele>-49.194788</ele>
        <time>2018-11-18T11:15:38Z</time>
      </trkpt>
      <trkpt lat="44.60157" lon="-0.30778">
        <ele>-88.793732</ele>
        <time>2018-11-18T11:16:38Z</time>
      </trkpt>
      <trkpt lat="44.6016" lon="-0.30718">
        <ele>-63.7936176</ele>
        <time>2018-11-18T11:16:54Z</time>
      </trkpt>
      <trkpt lat="44.60172" lon="-0.30659">
        <ele>-39.593128</ele>
        <time>2018-11-18T11:17:22Z</time>
      </trkpt>
      <trkpt lat="44.60191" lon="-0.30602">
        <ele>-23.6923732</ele>
        <time>2018-11-18T11:17:54Z</time>
      </trkpt>
      <trkpt lat="44.60201" lon="-0.30541">
        <ele>-37.6919756</ele>
        <time>2018-11-18T11:18:30Z</time>
      </trkpt>
      <trkpt lat="44.60219" lon="-0.30488">
        <ele>-34.391228</ele>
        <time>2018-11-18T11:19:06Z</time>
      </trkpt>
      <trkpt lat="44.6024" lon="-0.30434">
        <ele>-53.9904</ele>
        <time>2018-11-18T11:19:40Z</time>
      </trkpt>
      <trkpt lat="44.60245" lon="-0.30375">
        <ele>-39.1902036</ele>
        <time>2018-11-18T11:20:26Z</time>
      </trkpt>
      <trkpt lat="44.60241" lon="-0.3032">
        <ele>-40.1903528</ele>
        <time>2018-11-18T11:21:14Z</time>
      </trkpt>
      <trkpt lat="44.60241" lon="-0.3032">
        <ele>-40.1903528</ele>
        <time>2018-11-18T11:21:14Z</time>
      </trkpt>
    </trkseg>
  </trk>
</gpx>